Time;durP1;ratioP1;P1;durP2;ratioP2;P2;SDS_P1;SDS_P2;PMS_P1;PMS_P2;Temp;Humidity;BMP_temperature;BMP_pressure;BME280_temperature;BME280_humidity;BME280_pressure;Samples;Min_cycle;Max_cycle;Signal;HPM_P1;HPM_P2
2021/12/18 00:00:25;;;;;;;;;41.50;36.50;;;;;;;;5101840;27;45347;-77
2021/12/18 00:02:51;;;;;;;;;38.25;33.50;;;;;;;;5083039;27;45236;-76
2021/12/18 00:05:16;;;;;;;;;29.50;28.50;;;;;;;;5101594;27;45534;-76
2021/12/18 00:07:41;;;;;;;;;30.75;28.00;;;;;;;;5100542;27;46300;-76
2021/12/18 00:10:07;;;;;;;;;29.00;28.75;;;;;;;;5083013;27;46008;-76
2021/12/18 00:12:32;;;;;;;;;25.50;23.00;;;;;;;;5101330;27;45467;-77
2021/12/18 00:14:57;;;;;;;;;29.25;28.75;;;;;;;;5101119;27;45614;-76
2021/12/18 00:17:22;;;;;;;;;34.25;30.00;;;;;;;;5101398;27;45306;-76
2021/12/18 00:19:47;;;;;;;;;29.50;28.00;;;;;;;;5101290;27;45329;-76
2021/12/18 00:22:13;;;;;;;;;32.00;30.50;;;;;;;;5082966;27;45357;-77
2021/12/18 00:24:38;;;;;;;;;30.75;28.75;;;;;;;;5101157;27;45342;-77
2021/12/18 00:27:03;;;;;;;;;31.00;27.75;;;;;;;;5082574;27;47178;-76
2021/12/18 00:29:29;;;;;;;;;34.25;33.50;;;;;;;;5082618;27;46155;-76
2021/12/18 00:31:54;;;;;;;;;33.00;30.00;;;;;;;;5101344;27;45294;-76
2021/12/18 00:34:20;;;;;;;;;38.75;28.00;;;;;;;;5065870;27;47066;-76
2021/12/18 00:36:45;;;;;;;;;32.75;31.25;;;;;;;;5098113;27;46062;-77
2021/12/18 00:39:12;;;;;;;;;29.25;28.00;;;;;;;;5080545;28;45368;-76
2021/12/18 00:41:59;;;;;;;;;40.00;37.00;;;;;;;;5080736;28;45254;-76
2021/12/18 00:44:22;;;;;;;;;35.50;31.00;;;;;;;;5079656;28;45478;-76
2021/12/18 00:46:48;;;;;;;;;34.50;29.00;;;;;;;;5080425;28;45242;-76
2021/12/18 00:49:17;;;;;;;;;29.50;26.50;;;;;;;;5062284;28;45543;-76
2021/12/18 00:51:42;;;;;;;;;15.25;12.75;;;;;;;;5080694;28;45235;-76
2021/12/18 00:54:09;;;;;;;;;32.25;29.00;;;;;;;;5080242;28;45378;-76
2021/12/18 00:56:34;;;;;;;;;20.50;19.25;;;;;;;;5061748;28;47714;-76
2021/12/18 00:58:59;;;;;;;;;27.75;24.00;;;;;;;;5061801;28;45746;-77
2021/12/18 01:01:27;;;;;;;;;28.50;23.75;;;;;;;;5080203;28;45283;-77
2021/12/18 01:03:53;;;;;;;;;32.50;28.00;;;;;;;;5080241;28;45303;-76
2021/12/18 01:06:19;;;;;;;;;30.25;27.50;;;;;;;;5061868;28;46559;-77
2021/12/18 01:08:45;;;;;;;;;29.00;26.50;;;;;;;;5080155;28;45220;-76
2021/12/18 01:16:22;;;;;;;;;34.50;33.75;;;;;;;;5079933;28;45976;-77
2021/12/18 01:24:16;;;;;;;;;22.25;21.25;;;;;;;;5079467;28;45167;-76
2021/12/18 01:26:41;;;;;;;;;30.50;24.75;;;;;;;;5079026;28;46362;-76
2021/12/18 01:29:06;;;;;;;;;29.00;25.75;;;;;;;;5079540;28;45182;-76
2021/12/18 01:31:31;;;;;;;;;30.00;28.50;;;;;;;;5080128;28;45385;-77
2021/12/18 01:33:56;;;;;;;;;30.25;28.50;;;;;;;;5061688;28;46386;-76
2021/12/18 01:36:22;;;;;;;;;21.75;20.50;;;;;;;;5061579;28;47139;-77
2021/12/18 01:38:47;;;;;;;;;28.00;27.50;;;;;;;;5081219;27;45230;-76
2021/12/18 01:41:14;;;;;;;;;25.75;24.75;;;;;;;;5100373;27;45307;-76
2021/12/18 01:54:12;;;;;;;;;31.75;27.25;;;;;;;;5099771;27;45426;-77
2021/12/18 01:56:38;;;;;;;;;27.50;24.50;;;;;;;;5099842;27;46442;-76
2021/12/18 01:59:03;;;;;;;;;28.25;26.50;;;;;;;;5099760;27;45180;-76
2021/12/18 02:01:28;;;;;;;;;27.25;24.25;;;;;;;;5081576;27;45179;-77
2021/12/18 02:03:54;;;;;;;;;36.00;33.75;;;;;;;;5099733;27;45278;-76
2021/12/18 02:06:20;;;;;;;;;28.00;25.25;;;;;;;;5081415;27;48169;-77
2021/12/18 02:08:45;;;;;;;;;32.50;30.75;;;;;;;;5100027;27;45258;-76
2021/12/18 02:19:48;;;;;;;;;31.00;28.00;;;;;;;;5099470;27;45314;-76
2021/12/18 02:22:14;;;;;;;;;31.50;28.25;;;;;;;;5081391;27;45268;-76
2021/12/18 02:24:39;;;;;;;;;26.50;26.00;;;;;;;;5099549;27;45304;-76
2021/12/18 02:27:05;;;;;;;;;24.50;22.00;;;;;;;;5081072;27;47355;-76
2021/12/18 02:29:32;;;;;;;;;29.00;26.50;;;;;;;;5080646;27;45867;-76
2021/12/18 02:31:57;;;;;;;;;33.00;29.50;;;;;;;;5099872;27;45360;-77
2021/12/18 02:34:28;;;;;;;;;27.75;27.00;;;;;;;;5080988;27;45954;-77
2021/12/18 02:36:59;;;;;;;;;31.75;28.50;;;;;;;;5097088;27;45464;-76
2021/12/18 02:39:41;;;;;;;;;27.00;27.00;;;;;;;;5064260;28;45818;-76
2021/12/18 02:42:13;;;;;;;;;27.25;25.75;;;;;;;;5082711;28;45482;-76
2021/12/18 02:44:41;;;;;;;;;32.00;27.50;;;;;;;;5081894;28;45338;-76
2021/12/18 02:47:09;;;;;;;;;25.75;23.00;;;;;;;;5081760;28;46106;-76
2021/12/18 02:49:34;;;;;;;;;24.75;23.75;;;;;;;;5063832;28;45934;-76
2021/12/18 02:52:00;;;;;;;;;29.00;26.75;;;;;;;;5064318;28;45178;-77
2021/12/18 02:54:26;;;;;;;;;28.50;26.25;;;;;;;;5082382;28;45207;-76
2021/12/18 02:56:51;;;;;;;;;28.25;26.00;;;;;;;;5081527;28;45295;-76
2021/12/18 02:59:17;;;;;;;;;30.50;27.50;;;;;;;;5081858;28;45203;-76
2021/12/18 03:01:42;;;;;;;;;26.00;24.00;;;;;;;;5082145;28;45408;-77
2021/12/18 03:04:44;;;;;;;;;30.00;27.25;;;;;;;;5082048;28;45493;-76
2021/12/18 03:07:03;;;;;;;;;24.50;22.75;;;;;;;;5077855;28;45945;-76
2021/12/18 03:25:37;;;;;;;;;26.75;26.75;;;;;;;;5081636;28;45174;-77
2021/12/18 03:28:05;;;;;;;;;30.25;25.75;;;;;;;;5081439;28;45326;-76
2021/12/18 03:30:31;;;;;;;;;31.75;31.25;;;;;;;;5081178;28;45490;-76
2021/12/18 03:32:56;;;;;;;;;31.25;28.75;;;;;;;;5063544;28;45560;-76
2021/12/18 03:35:22;;;;;;;;;34.50;29.75;;;;;;;;5063251;28;45491;-76
2021/12/18 03:37:47;;;;;;;;;35.00;30.50;;;;;;;;5074601;27;48329;-76
2021/12/18 03:40:14;;;;;;;;;33.00;27.75;;;;;;;;5101945;27;45260;-77
2021/12/18 03:42:40;;;;;;;;;37.50;31.00;;;;;;;;5101913;27;45166;-77
2021/12/18 03:45:07;;;;;;;;;33.75;31.75;;;;;;;;5083198;27;46083;-76
2021/12/18 03:47:32;;;;;;;;;33.50;33.50;;;;;;;;5082827;27;48405;-76
2021/12/18 03:49:57;;;;;;;;;34.75;33.75;;;;;;;;5101583;27;45238;-77
2021/12/18 03:52:23;;;;;;;;;36.50;30.75;;;;;;;;5083590;27;45330;-76
2021/12/18 03:54:48;;;;;;;;;32.75;29.75;;;;;;;;5083324;27;45264;-76
2021/12/18 03:57:13;;;;;;;;;33.00;30.00;;;;;;;;5101594;27;45414;-77
2021/12/18 03:59:38;;;;;;;;;32.25;31.25;;;;;;;;5101366;27;45423;-76
2021/12/18 04:02:03;;;;;;;;;31.00;30.75;;;;;;;;5101670;27;45351;-75
2021/12/18 04:04:29;;;;;;;;;35.50;31.00;;;;;;;;5101560;27;45200;-76
2021/12/18 04:06:54;;;;;;;;;38.00;33.25;;;;;;;;5101502;27;46102;-77
2021/12/18 04:09:19;;;;;;;;;34.75;30.75;;;;;;;;5083234;27;45420;-76
2021/12/18 04:11:44;;;;;;;;;32.75;30.00;;;;;;;;5083297;27;45256;-77
2021/12/18 04:14:11;;;;;;;;;37.25;33.25;;;;;;;;5082636;27;46215;-77
2021/12/18 04:16:36;;;;;;;;;35.50;31.75;;;;;;;;5101343;27;45418;-76
2021/12/18 04:19:02;;;;;;;;;40.00;35.75;;;;;;;;5101244;27;45330;-77
2021/12/18 04:21:28;;;;;;;;;35.50;31.00;;;;;;;;5083144;27;45551;-76
2021/12/18 04:23:53;;;;;;;;;40.50;33.25;;;;;;;;5082703;27;47522;-77
2021/12/18 04:26:19;;;;;;;;;31.50;31.00;;;;;;;;5101054;27;46060;-76
2021/12/18 04:28:44;;;;;;;;;36.25;32.50;;;;;;;;5100711;27;45220;-76
2021/12/18 04:31:09;;;;;;;;;28.75;26.25;;;;;;;;5101365;27;45388;-76
2021/12/18 04:33:34;;;;;;;;;34.25;33.75;;;;;;;;5101293;27;45275;-76
2021/12/18 04:35:59;;;;;;;;;38.50;33.00;;;;;;;;5082701;27;46900;-76
2021/12/18 04:38:25;;;;;;;;;33.25;31.25;;;;;;;;5084166;27;45282;-77
2021/12/18 04:40:51;;;;;;;;;34.00;31.25;;;;;;;;5062574;28;45393;-76
2021/12/18 04:43:16;;;;;;;;;35.25;31.25;;;;;;;;5080175;28;45324;-76
2021/12/18 04:45:41;;;;;;;;;35.75;31.75;;;;;;;;5080423;28;45407;-77
2021/12/18 04:48:06;;;;;;;;;35.00;32.75;;;;;;;;5080589;28;45243;-76
2021/12/18 04:50:32;;;;;;;;;43.00;34.00;;;;;;;;5062540;28;45227;-76
2021/12/18 04:52:57;;;;;;;;;30.75;30.75;;;;;;;;5080492;28;45425;-77
2021/12/18 04:55:22;;;;;;;;;31.50;28.25;;;;;;;;5080313;28;46381;-77
2021/12/18 04:57:47;;;;;;;;;35.50;31.00;;;;;;;;5061819;28;45338;-76
2021/12/18 05:00:15;;;;;;;;;34.75;29.75;;;;;;;;5080361;28;45329;-76
2021/12/18 05:02:43;;;;;;;;;31.50;26.25;;;;;;;;5080125;28;45576;-76
2021/12/18 05:05:13;;;;;;;;;41.25;34.00;;;;;;;;5079985;28;45664;-77
2021/12/18 05:07:38;;;;;;;;;29.50;28.00;;;;;;;;5080122;28;45318;-77
2021/12/18 05:10:04;;;;;;;;;36.75;32.75;;;;;;;;5062045;28;45260;-76
2021/12/18 05:12:29;;;;;;;;;34.75;32.50;;;;;;;;5061621;28;48959;-76
2021/12/18 05:14:55;;;;;;;;;33.50;32.50;;;;;;;;5061557;28;47296;-76
2021/12/18 05:17:20;;;;;;;;;34.50;31.75;;;;;;;;5080081;28;45242;-77
2021/12/18 05:19:45;;;;;;;;;35.00;31.50;;;;;;;;5080224;28;45372;-77
2021/12/18 05:22:11;;;;;;;;;27.67;26.67;;;;;;;;5080019;28;45338;-76
2021/12/18 05:24:36;;;;;;;;;34.25;30.50;;;;;;;;5061478;28;45904;-76
2021/12/18 05:27:01;;;;;;;;;37.00;30.00;;;;;;;;5079999;28;45316;-76
2021/12/18 05:29:26;;;;;;;;;33.25;29.50;;;;;;;;5079651;28;45232;-77
2021/12/18 05:31:52;;;;;;;;;27.50;26.00;;;;;;;;5079912;28;45498;-77
2021/12/18 05:34:22;;;;;;;;;28.25;26.75;;;;;;;;5079847;28;45283;-76
2021/12/18 05:39:23;;;;;;;;;29.33;27.67;;;;;;;;5100302;27;45284;-76
2021/12/18 05:41:50;;;;;;;;;29.33;26.67;;;;;;;;5100040;27;45543;-76
2021/12/18 05:44:17;;;;;;;;;26.50;23.00;;;;;;;;5081286;27;48136;-76
2021/12/18 05:46:42;;;;;;;;;31.25;28.25;;;;;;;;5081737;27;45399;-76
2021/12/18 05:49:08;;;;;;;;;31.75;26.25;;;;;;;;5100167;27;45271;-76
2021/12/18 05:51:33;;;;;;;;;32.00;31.00;;;;;;;;5081565;27;46060;-77
2021/12/18 05:53:58;;;;;;;;;29.50;27.25;;;;;;;;5081144;27;47707;-77
2021/12/18 05:56:23;;;;;;;;;29.50;26.75;;;;;;;;5100093;27;45257;-76
2021/12/18 05:58:49;;;;;;;;;30.25;25.25;;;;;;;;5081541;27;45535;-77
2021/12/18 06:01:14;;;;;;;;;31.00;29.25;;;;;;;;5081390;27;47260;-76
2021/12/18 06:03:40;;;;;;;;;28.25;23.50;;;;;;;;5099564;27;45258;-76
2021/12/18 06:06:05;;;;;;;;;24.00;24.00;;;;;;;;5099663;27;45364;-76
2021/12/18 06:08:32;;;;;;;;;30.25;26.75;;;;;;;;5099986;27;45267;-76
2021/12/18 06:11:04;;;;;;;;;31.00;28.25;;;;;;;;5081539;27;47398;-76
2021/12/18 06:13:29;;;;;;;;;29.50;24.75;;;;;;;;5102989;27;45643;-76
2021/12/18 06:15:55;;;;;;;;;34.75;27.50;;;;;;;;5103338;27;45376;-76
2021/12/18 06:18:20;;;;;;;;;39.75;30.25;;;;;;;;5103428;27;45221;-77
2021/12/18 06:20:45;;;;;;;;;35.50;30.75;;;;;;;;5085018;27;45293;-79
2021/12/18 06:23:10;;;;;;;;;28.25;26.75;;;;;;;;5084649;27;46067;-78
2021/12/18 06:25:35;;;;;;;;;34.75;30.25;;;;;;;;5103237;27;45202;-77
2021/12/18 06:28:01;;;;;;;;;40.00;30.50;;;;;;;;5103116;27;45204;-77
2021/12/18 06:30:26;;;;;;;;;32.75;29.00;;;;;;;;5102868;27;45218;-78
2021/12/18 06:32:52;;;;;;;;;32.00;29.75;;;;;;;;5103063;27;45269;-78
2021/12/18 06:35:17;;;;;;;;;26.25;25.50;;;;;;;;5103085;27;45274;-79
2021/12/18 06:37:42;;;;;;;;;33.25;31.25;;;;;;;;5073720;28;45429;-79
2021/12/18 06:40:07;;;;;;;;;27.00;25.75;;;;;;;;5082640;28;45441;-79
2021/12/18 06:42:33;;;;;;;;;33.25;29.25;;;;;;;;5063944;28;47872;-79
2021/12/18 06:44:58;;;;;;;;;27.25;23.00;;;;;;;;5082332;28;45344;-80
2021/12/18 06:47:23;;;;;;;;;29.75;28.00;;;;;;;;5064429;28;45396;-79
2021/12/18 06:49:48;;;;;;;;;23.75;22.75;;;;;;;;5082371;28;45299;-78
2021/12/18 06:52:13;;;;;;;;;29.00;23.25;;;;;;;;5082240;28;46503;-78
2021/12/18 06:54:39;;;;;;;;;28.75;26.75;;;;;;;;5064119;28;45343;-79
2021/12/18 06:57:04;;;;;;;;;29.00;29.00;;;;;;;;5082970;28;45308;-81
2021/12/18 06:59:29;;;;;;;;;30.50;27.25;;;;;;;;5082414;28;45295;-81
2021/12/18 07:01:54;;;;;;;;;29.25;26.75;;;;;;;;5063710;28;46952;-81
2021/12/18 07:04:22;;;;;;;;;28.50;23.75;;;;;;;;5063889;28;45981;-81
2021/12/18 07:06:48;;;;;;;;;24.25;22.00;;;;;;;;5082390;28;45216;-81
2021/12/18 07:09:13;;;;;;;;;27.50;25.50;;;;;;;;5082242;28;45234;-81
2021/12/18 07:11:38;;;;;;;;;30.75;24.75;;;;;;;;5063702;28;47388;-81
2021/12/18 07:14:03;;;;;;;;;29.25;25.25;;;;;;;;5063445;28;46000;-80
2021/12/18 07:16:28;;;;;;;;;27.75;26.25;;;;;;;;5063849;28;45419;-81
2021/12/18 07:18:54;;;;;;;;;28.25;25.75;;;;;;;;5081873;28;45424;-79
2021/12/18 07:21:19;;;;;;;;;27.50;25.00;;;;;;;;5081800;28;46954;-81
2021/12/18 07:23:44;;;;;;;;;31.25;27.00;;;;;;;;5062147;28;45401;-80
2021/12/18 07:26:12;;;;;;;;;30.75;26.50;;;;;;;;5081983;28;45327;-80
2021/12/18 07:28:37;;;;;;;;;28.00;26.25;;;;;;;;5062980;28;47145;-81
2021/12/18 07:31:02;;;;;;;;;31.75;28.50;;;;;;;;5081540;28;45259;-80
2021/12/18 07:33:27;;;;;;;;;28.00;25.50;;;;;;;;5063319;28;45821;-80
2021/12/18 07:35:53;;;;;;;;;27.75;26.25;;;;;;;;5063545;28;45319;-79
2021/12/18 07:38:18;;;;;;;;;26.25;22.25;;;;;;;;5097290;27;45428;-80
2021/12/18 07:40:43;;;;;;;;;31.50;28.25;;;;;;;;5083492;27;48052;-80
2021/12/18 07:43:08;;;;;;;;;25.50;25.50;;;;;;;;5101858;27;45299;-79
2021/12/18 07:45:34;;;;;;;;;24.25;22.75;;;;;;;;5102156;27;45299;-81
2021/12/18 07:48:00;;;;;;;;;29.75;26.75;;;;;;;;5083561;27;47286;-81
2021/12/18 07:50:25;;;;;;;;;31.50;30.00;;;;;;;;5083187;27;48080;-81
2021/12/18 07:52:51;;;;;;;;;31.75;26.75;;;;;;;;5101681;27;45224;-81
2021/12/18 07:55:17;;;;;;;;;28.75;24.75;;;;;;;;5083609;27;45289;-81
2021/12/18 07:57:42;;;;;;;;;19.75;16.25;;;;;;;;5083287;27;46059;-81
2021/12/18 08:00:09;;;;;;;;;32.25;30.75;;;;;;;;5101993;27;47314;-81
2021/12/18 08:02:35;;;;;;;;;29.25;27.25;;;;;;;;5101613;27;45310;-80
2021/12/18 08:05:00;;;;;;;;;32.50;27.50;;;;;;;;5083360;27;45402;-81
2021/12/18 08:07:25;;;;;;;;;29.25;24.25;;;;;;;;5083299;27;46308;-80
2021/12/18 08:09:51;;;;;;;;;30.00;25.75;;;;;;;;5101632;27;46727;-81
2021/12/18 08:12:16;;;;;;;;;28.25;26.00;;;;;;;;5101331;27;45372;-81
2021/12/18 08:14:41;;;;;;;;;26.50;23.00;;;;;;;;5101581;27;45291;-81
2021/12/18 08:17:06;;;;;;;;;26.25;24.25;;;;;;;;5083139;27;45812;-81
2021/12/18 08:19:31;;;;;;;;;30.25;27.75;;;;;;;;5101442;27;45427;-81
2021/12/18 08:21:57;;;;;;;;;31.25;27.50;;;;;;;;5101347;27;45387;-81
2021/12/18 08:24:22;;;;;;;;;29.00;25.75;;;;;;;;5082959;27;45240;-81
2021/12/18 08:26:47;;;;;;;;;34.50;29.75;;;;;;;;5101346;27;45208;-81
2021/12/18 08:29:12;;;;;;;;;28.50;26.75;;;;;;;;5100654;27;46648;-81
2021/12/18 08:31:38;;;;;;;;;25.25;23.75;;;;;;;;5101355;27;45223;-81
2021/12/18 08:34:03;;;;;;;;;28.75;25.50;;;;;;;;5100932;27;45282;-81
2021/12/18 08:36:28;;;;;;;;;31.25;25.75;;;;;;;;5082125;27;46486;-81
2021/12/18 08:38:53;;;;;;;;;28.25;26.75;;;;;;;;5080695;28;45551;-82
2021/12/18 08:41:20;;;;;;;;;26.00;24.25;;;;;;;;5062394;28;45777;-81
2021/12/18 08:43:45;;;;;;;;;26.75;24.75;;;;;;;;5080380;28;45489;-81
2021/12/18 08:46:10;;;;;;;;;28.75;28.00;;;;;;;;5061978;28;46118;-81
2021/12/18 08:48:36;;;;;;;;;26.75;24.75;;;;;;;;5062345;28;47158;-81
2021/12/18 08:51:01;;;;;;;;;33.00;26.25;;;;;;;;5081113;28;45326;-81
2021/12/18 08:53:26;;;;;;;;;32.25;28.25;;;;;;;;5081067;28;45262;-81
2021/12/18 08:55:51;;;;;;;;;33.75;29.50;;;;;;;;5062301;28;46266;-82
2021/12/18 08:58:17;;;;;;;;;29.75;27.75;;;;;;;;5061617;28;47291;-82
2021/12/18 09:00:42;;;;;;;;;31.75;29.25;;;;;;;;5080471;28;45306;-82
2021/12/18 09:03:08;;;;;;;;;32.50;29.00;;;;;;;;5080239;28;45396;-83
2021/12/18 09:05:34;;;;;;;;;31.25;29.00;;;;;;;;5061926;28;46038;-83
2021/12/18 09:07:59;;;;;;;;;28.50;27.00;;;;;;;;5062741;28;47146;-82
2021/12/18 09:10:25;;;;;;;;;30.50;29.50;;;;;;;;5062256;28;45324;-84
2021/12/18 09:12:51;;;;;;;;;29.75;28.00;;;;;;;;5080557;28;45241;-86
2021/12/18 09:15:16;;;;;;;;;36.75;34.25;;;;;;;;5064183;28;46167;-85
2021/12/18 09:17:41;;;;;;;;;32.75;28.50;;;;;;;;5081985;28;46605;-83
2021/12/18 09:20:07;;;;;;;;;33.00;26.25;;;;;;;;5063188;28;46140;-85
2021/12/18 09:22:32;;;;;;;;;35.75;32.00;;;;;;;;5062561;28;45320;-84
2021/12/18 09:24:59;;;;;;;;;24.75;22.00;;;;;;;;5062056;28;45528;-81
2021/12/18 09:27:24;;;;;;;;;32.75;30.50;;;;;;;;5061050;28;48415;-83
2021/12/18 09:29:50;;;;;;;;;31.00;28.50;;;;;;;;5079481;28;45348;-82
2021/12/18 09:32:15;;;;;;;;;33.75;30.00;;;;;;;;5080056;28;45346;-82
2021/12/18 09:34:40;;;;;;;;;26.75;26.50;;;;;;;;5061543;28;46264;-82
2021/12/18 09:37:05;;;;;;;;;33.00;27.00;;;;;;;;5085254;27;45321;-81
2021/12/18 09:39:31;;;;;;;;;29.75;28.75;;;;;;;;5100132;27;45313;-83
2021/12/18 09:41:56;;;;;;;;;33.00;28.25;;;;;;;;5081760;27;45309;-80
2021/12/18 09:44:26;;;;;;;;;34.75;32.00;;;;;;;;5081464;27;45817;-79
2021/12/18 09:46:52;;;;;;;;;28.25;25.75;;;;;;;;5083353;27;47212;-79
2021/12/18 09:49:17;;;;;;;;;33.50;30.25;;;;;;;;5080057;27;45304;-79
2021/12/18 09:51:43;;;;;;;;;26.75;24.75;;;;;;;;5060374;28;45279;-79
2021/12/18 09:54:08;;;;;;;;;31.75;30.75;;;;;;;;5062123;28;45388;-80
2021/12/18 09:56:33;;;;;;;;;32.50;28.25;;;;;;;;5061034;28;47602;-79
2021/12/18 09:58:58;;;;;;;;;27.75;25.00;;;;;;;;5062412;28;45322;-80
2021/12/18 10:01:24;;;;;;;;;24.67;20.33;;;;;;;;5061469;28;45538;-80
2021/12/18 10:03:53;;;;;;;;;33.50;28.50;;;;;;;;5062616;28;45487;-81
2021/12/18 10:06:39;;;;;;;;;30.25;30.00;;;;;;;;5061114;28;47298;-82
2021/12/18 10:09:25;;;;;;;;;34.50;31.50;;;;;;;;5061250;28;45240;-80
2021/12/18 10:11:53;;;;;;;;;37.25;34.25;;;;;;;;5047085;28;45500;-79
2021/12/18 10:14:20;;;;;;;;;31.33;28.33;;;;;;;;5060709;28;46308;-80
2021/12/18 10:16:47;;;;;;;;;35.50;32.50;;;;;;;;5061084;28;47206;-81
2021/12/18 10:19:28;;;;;;;;;37.50;33.00;;;;;;;;5062358;28;45274;-81
2021/12/18 10:22:02;;;;;;;;;38.50;31.75;;;;;;;;5061234;28;45339;-81
2021/12/18 10:24:28;;;;;;;;;30.25;28.25;;;;;;;;5062298;28;45598;-81
2021/12/18 10:26:53;;;;;;;;;29.00;27.25;;;;;;;;5062984;28;45332;-80
2021/12/18 10:29:30;;;;;;;;;33.00;29.25;;;;;;;;5065585;28;45444;-79
2021/12/18 10:31:55;;;;;;;;;33.75;31.25;;;;;;;;5082830;28;45440;-82
2021/12/18 10:34:25;;;;;;;;;33.00;29.50;;;;;;;;5063703;28;47110;-82
2021/12/18 10:37:26;;;;;;;;;29.00;24.75;;;;;;;;5067713;27;48222;-84
2021/12/18 10:39:53;;;;;;;;;32.50;28.50;;;;;;;;5019745;28;46151;-84
2021/12/18 10:42:30;;;;;;;;;32.00;27.33;;;;;;;;5067964;27;45485;-82
2021/12/18 10:45:05;;;;;;;;;33.00;32.00;;;;;;;;5102671;27;45556;-84
2021/12/18 10:47:42;;;;;;;;;32.00;30.00;;;;;;;;5102649;27;46348;-78
2021/12/18 10:50:19;;;;;;;;;28.25;26.00;;;;;;;;5102429;27;45192;-79
2021/12/18 10:52:44;;;;;;;;;33.75;29.25;;;;;;;;5102465;27;45366;-78
2021/12/18 10:55:10;;;;;;;;;31.33;25.67;;;;;;;;5084118;27;45989;-80
2021/12/18 10:57:35;;;;;;;;;28.25;25.75;;;;;;;;5076814;28;47380;-80
2021/12/18 11:00:17;;;;;;;;;31.50;29.00;;;;;;;;5080611;27;45424;-80
2021/12/18 11:02:43;;;;;;;;;31.00;29.67;;;;;;;;5059970;28;45461;-78
2021/12/18 11:05:12;;;;;;;;;33.50;29.25;;;;;;;;5062843;28;45387;-79
2021/12/18 11:07:42;;;;;;;;;29.33;24.67;;;;;;;;5082014;28;46411;-78
2021/12/18 11:15:48;;;;;;;;;30.00;24.67;;;;;;;;5081735;28;45375;-79
2021/12/18 11:18:14;;;;;;;;;25.00;22.33;;;;;;;;5081645;28;46540;-80
2021/12/18 11:20:40;;;;;;;;;29.67;27.33;;;;;;;;5082055;28;45332;-81
2021/12/18 11:23:05;;;;;;;;;32.67;30.00;;;;;;;;5063654;28;45367;-79
2021/12/18 11:25:30;;;;;;;;;24.33;22.00;;;;;;;;5063220;28;46030;-79
2021/12/18 11:27:56;;;;;;;;;33.00;26.33;;;;;;;;5081418;28;45340;-79
2021/12/18 11:30:21;;;;;;;;;27.00;23.67;;;;;;;;5081248;28;45311;-80
2021/12/18 11:32:53;;;;;;;;;25.33;23.33;;;;;;;;5081837;28;45294;-78
2021/12/18 11:35:20;;;;;;;;;23.00;20.67;;;;;;;;5063253;28;46146;-80
2021/12/18 11:37:55;;;;;;;;;26.67;26.67;;;;;;;;5092573;27;45331;-79
2021/12/18 11:40:30;;;;;;;;;23.33;22.67;;;;;;;;5101854;27;45373;-78
2021/12/18 11:42:55;;;;;;;;;26.00;24.00;;;;;;;;5101784;27;45334;-79
2021/12/18 11:45:29;;;;;;;;;27.00;25.00;;;;;;;;5082324;27;47287;-78
2021/12/18 11:47:56;;;;;;;;;15.67;15.67;;;;;;;;5101903;27;45498;-79
2021/12/18 11:50:29;;;;;;;;;25.67;22.67;;;;;;;;5083457;27;45335;-78
2021/12/18 11:52:58;;;;;;;;;23.67;23.33;;;;;;;;5101962;27;45340;-78
2021/12/18 11:55:26;;;;;;;;;28.33;26.67;;;;;;;;5101488;27;45373;-79
2021/12/18 11:57:52;;;;;;;;;24.33;22.33;;;;;;;;5101458;27;46588;-79
2021/12/18 12:00:18;;;;;;;;;28.00;23.67;;;;;;;;5083254;27;45306;-79
2021/12/18 12:02:43;;;;;;;;;23.67;23.00;;;;;;;;5083421;27;45524;-79
2021/12/18 12:05:08;;;;;;;;;25.00;23.67;;;;;;;;5102594;27;45318;-79
2021/12/18 12:07:34;;;;;;;;;26.00;22.00;;;;;;;;5084361;27;47837;-79
2021/12/18 12:11:02;;;;;;;;;29.33;26.00;;;;;;;;5083273;27;45434;-78
2021/12/18 12:13:40;;;;;;;;;29.00;26.00;;;;;;;;5097594;27;45469;-78
2021/12/18 12:16:05;;;;;;;;;22.00;20.33;;;;;;;;5083877;27;46340;-78
2021/12/18 12:18:50;;;;;;;;;19.33;18.00;;;;;;;;5103421;27;45344;-78
2021/12/18 12:21:36;;;;;;;;;27.33;23.33;;;;;;;;5086218;27;45312;-79
2021/12/18 12:24:02;;;;;;;;;24.00;22.33;;;;;;;;5103117;27;45350;-78
2021/12/18 12:26:27;;;;;;;;;22.00;21.00;;;;;;;;5102822;27;45284;-79
2021/12/18 12:28:53;;;;;;;;;20.67;20.67;;;;;;;;5100799;27;46473;-79
2021/12/18 12:31:19;;;;;;;;;20.33;18.67;;;;;;;;5082802;27;45529;-79
2021/12/18 12:33:45;;;;;;;;;22.00;21.33;;;;;;;;5101411;27;45409;-78
2021/12/18 12:36:14;;;;;;;;;23.33;19.33;;;;;;;;5101278;27;45318;-79
2021/12/18 12:38:40;;;;;;;;;21.67;18.67;;;;;;;;5064111;28;47412;-79
2021/12/18 12:41:25;;;;;;;;;22.00;21.00;;;;;;;;5080850;28;45304;-78
2021/12/18 12:43:50;;;;;;;;;22.33;21.00;;;;;;;;5080681;28;45447;-80
2021/12/18 12:46:17;;;;;;;;;24.33;23.33;;;;;;;;5080397;28;45264;-79
2021/12/18 12:49:00;;;;;;;;;28.33;26.33;;;;;;;;5062202;28;48651;-79
2021/12/18 12:51:47;;;;;;;;;56.25;45.50;;;;;;;;5062030;28;45346;-78
2021/12/18 12:54:33;;;;;;;;;36.25;32.75;;;;;;;;5062077;28;45279;-79
2021/12/18 12:57:16;;;;;;;;;43.00;37.50;;;;;;;;5080104;27;45665;-77
2021/12/18 12:59:42;;;;;;;;;25.67;24.00;;;;;;;;5080127;28;45266;-77
2021/12/18 13:02:08;;;;;;;;;25.33;20.00;;;;;;;;5061828;28;45279;-77
2021/12/18 13:04:33;;;;;;;;;16.33;15.33;;;;;;;;5062023;28;45602;-77
2021/12/18 13:07:08;;;;;;;;;18.33;18.33;;;;;;;;5062285;28;45851;-76
2021/12/18 13:09:34;;;;;;;;;21.67;16.67;;;;;;;;5061905;28;47391;-76
2021/12/18 13:12:03;;;;;;;;;17.33;16.67;;;;;;;;5080162;28;45314;-76
2021/12/18 13:14:39;;;;;;;;;20.67;19.67;;;;;;;;5062177;28;45282;-79
2021/12/18 13:17:17;;;;;;;;;23.67;20.33;;;;;;;;5061903;28;47405;-78
2021/12/18 13:19:54;;;;;;;;;18.67;16.67;;;;;;;;5079896;28;46543;-78
2021/12/18 13:22:22;;;;;;;;;27.00;23.00;;;;;;;;5078924;28;45309;-78
2021/12/18 13:25:03;;;;;;;;;23.00;21.67;;;;;;;;5062121;28;45308;-78
2021/12/18 13:27:28;;;;;;;;;25.00;22.33;;;;;;;;5079950;28;45647;-81
2021/12/18 13:30:13;;;;;;;;;17.67;17.00;;;;;;;;5061211;28;48438;-79
2021/12/18 13:32:52;;;;;;;;;20.67;19.33;;;;;;;;5061570;28;45468;-79
2021/12/18 13:35:17;;;;;;;;;22.67;18.67;;;;;;;;5079932;28;45356;-79
2021/12/18 13:37:52;;;;;;;;;22.00;20.00;;;;;;;;5090362;27;45487;-79
2021/12/18 13:40:18;;;;;;;;;19.00;18.67;;;;;;;;5101034;27;46378;-77
2021/12/18 13:42:43;;;;;;;;;16.00;14.00;;;;;;;;5081814;27;45861;-78
2021/12/18 13:45:08;;;;;;;;;18.33;17.33;;;;;;;;5100132;27;45598;-77
2021/12/18 13:47:35;;;;;;;;;19.00;19.00;;;;;;;;5100493;27;45439;-77
2021/12/18 13:50:00;;;;;;;;;25.67;24.67;;;;;;;;5081791;27;48321;-77
2021/12/18 13:52:31;;;;;;;;;25.00;21.67;;;;;;;;5100152;27;45353;-78
2021/12/18 13:54:56;;;;;;;;;26.67;21.67;;;;;;;;5100073;27;45362;-79
2021/12/18 13:57:22;;;;;;;;;23.00;21.67;;;;;;;;5081232;27;47160;-78
2021/12/18 13:59:55;;;;;;;;;22.33;22.00;;;;;;;;5081311;27;47345;-79
2021/12/18 14:02:21;;;;;;;;;19.67;17.67;;;;;;;;5099793;27;45283;-79
2021/12/18 14:04:46;;;;;;;;;33.67;30.00;;;;;;;;5099873;27;45250;-79
2021/12/18 14:07:12;;;;;;;;;20.00;20.00;;;;;;;;5099770;27;45381;-79
2021/12/18 14:09:37;;;;;;;;;21.00;20.00;;;;;;;;5099706;27;45214;-77
2021/12/18 14:12:05;;;;;;;;;24.67;24.33;;;;;;;;5081240;27;45571;-77
2021/12/18 14:14:51;;;;;;;;;21.67;19.67;;;;;;;;5081436;27;45294;-78
2021/12/18 14:17:37;;;;;;;;;27.67;24.00;;;;;;;;5099579;27;45414;-78
2021/12/18 14:20:04;;;;;;;;;24.33;21.33;;;;;;;;5099266;27;46326;-78
2021/12/18 14:22:31;;;;;;;;;26.33;25.00;;;;;;;;5087411;27;45405;-78
2021/12/18 14:25:00;;;;;;;;;25.00;24.33;;;;;;;;5060351;28;45343;-77
2021/12/18 14:27:36;;;;;;;;;24.67;22.00;;;;;;;;5060309;28;47075;-79
2021/12/18 14:30:01;;;;;;;;;22.67;19.00;;;;;;;;5079282;28;45505;-77
2021/12/18 14:32:26;;;;;;;;;23.33;20.33;;;;;;;;5080704;28;45201;-78
2021/12/18 14:35:00;;;;;;;;;23.33;19.67;;;;;;;;5064496;28;45350;-80
2021/12/18 14:37:25;;;;;;;;;20.67;20.33;;;;;;;;5085163;28;45467;-79
2021/12/18 14:39:52;;;;;;;;;21.67;19.67;;;;;;;;5085377;28;45310;-79
2021/12/18 14:42:34;;;;;;;;;24.00;24.00;;;;;;;;5084130;28;45366;-80
2021/12/18 14:45:02;;;;;;;;;20.33;20.00;;;;;;;;5063983;28;45367;-80
2021/12/18 14:47:32;;;;;;;;;27.33;25.67;;;;;;;;5063858;28;47105;-80
2021/12/18 14:49:58;;;;;;;;;16.67;16.00;;;;;;;;5082103;28;45566;-80
2021/12/18 14:52:23;;;;;;;;;18.00;17.00;;;;;;;;5063910;28;45379;-82
2021/12/18 14:54:50;;;;;;;;;21.67;19.00;;;;;;;;5082777;28;45206;-80
2021/12/18 14:57:34;;;;;;;;;20.33;18.67;;;;;;;;5064978;28;47079;-81
2021/12/18 15:00:18;;;;;;;;;19.00;17.00;;;;;;;;5083810;28;46206;-80
2021/12/18 15:02:55;;;;;;;;;24.67;24.00;;;;;;;;5064147;28;45343;-80
2021/12/18 15:05:20;;;;;;;;;17.67;17.00;;;;;;;;5064023;28;45360;-81
2021/12/18 15:07:59;;;;;;;;;21.67;21.00;;;;;;;;5082039;28;45274;-80
2021/12/18 15:10:25;;;;;;;;;19.00;19.00;;;;;;;;5063860;28;48335;-80
2021/12/18 15:12:50;;;;;;;;;26.33;25.00;;;;;;;;5082199;28;45344;-81